createdAt,value
2019-04-28T00:02:14.504Z,9.33
2019-04-28T00:04:44.703Z,10.57
2019-04-28T00:07:14.877Z,15.27
2019-04-28T00:09:45.062Z,11.03
2019-04-28T00:12:15.261Z,8.40
2019-04-28T00:14:45.462Z,16.37
2019-04-28T00:17:15.645Z,9.20
2019-04-28T00:19:45.757Z,7.23
2019-04-28T00:22:28.545Z,9.00
2019-04-28T00:25:07.143Z,11.13
2019-04-28T00:27:37.316Z,10.50
2019-04-28T00:30:09.577Z,10.53
2019-04-28T00:32:41.659Z,11.07
2019-04-28T00:35:11.869Z,5.73
2019-04-28T00:37:42.124Z,7.10
2019-04-28T00:40:12.725Z,8.37
2019-04-28T00:42:42.948Z,9.40
2019-04-28T00:45:14.038Z,13.67
2019-04-28T00:47:44.230Z,7.03
2019-04-28T00:50:14.523Z,13.27
2019-04-28T00:52:44.690Z,11.00
2019-04-28T00:55:14.890Z,6.20
2019-04-28T00:57:45.089Z,6.60
2019-04-28T01:00:17.383Z,7.50
2019-04-28T01:02:47.631Z,7.87
2019-04-28T01:05:18.046Z,8.87
2019-04-28T01:07:48.234Z,8.70
2019-04-28T01:10:21.059Z,8.97
2019-04-28T01:12:51.267Z,15.33
2019-04-28T01:15:40.399Z,8.57
2019-04-28T01:18:30.269Z,5.37
2019-04-28T01:21:00.614Z,12.10
2019-04-28T01:23:30.748Z,9.33
2019-04-28T01:26:00.943Z,6.17
2019-04-28T01:28:31.110Z,11.30
2019-04-28T01:31:21.269Z,7.27
2019-04-28T01:34:10.498Z,12.10
2019-04-28T01:36:40.823Z,6.83
2019-04-28T01:39:11.007Z,8.27
2019-04-28T01:41:41.198Z,6.17
2019-04-28T01:44:11.391Z,8.07
2019-04-28T01:46:41.634Z,12.13
2019-04-28T01:49:11.829Z,11.97
2019-04-28T01:51:42.131Z,10.93
2019-04-28T01:54:12.321Z,10.83
2019-04-28T01:56:42.554Z,7.37
2019-04-28T01:59:12.754Z,5.30
2019-04-28T02:01:42.971Z,11.40
2019-04-28T02:04:13.098Z,9.23
2019-04-28T02:06:43.322Z,4.87
2019-04-28T02:09:13.548Z,9.33
2019-04-28T02:11:43.820Z,7.10
2019-04-28T02:14:13.944Z,9.00
2019-04-28T02:16:44.134Z,8.87
2019-04-28T02:19:14.326Z,12.80
2019-04-28T02:22:03.413Z,12.40
2019-04-28T02:24:36.844Z,11.17
2019-04-28T02:27:07.267Z,8.97
2019-04-28T02:29:37.350Z,11.73
2019-04-28T02:32:10.343Z,8.30
2019-04-28T02:34:41.386Z,11.50
2019-04-28T02:37:11.725Z,6.53
2019-04-28T02:39:41.999Z,14.67
2019-04-28T02:42:12.201Z,13.33
2019-04-28T02:44:42.393Z,6.37
2019-04-28T02:47:12.603Z,9.57
2019-04-28T02:49:50.503Z,11.17
2019-04-28T02:52:41.433Z,4.37
2019-04-28T02:55:11.767Z,12.47
2019-04-28T02:57:41.979Z,8.17
2019-04-28T03:00:12.392Z,7.87
2019-04-28T03:02:43.834Z,7.10
2019-04-28T03:05:14.030Z,7.73
2019-04-28T03:07:44.228Z,6.50
2019-04-28T03:10:14.401Z,8.97
2019-04-28T03:12:44.609Z,5.47
2019-04-28T03:15:15.101Z,7.40
2019-04-28T03:17:45.295Z,5.23
2019-04-28T03:20:15.475Z,7.03
2019-04-28T03:22:45.675Z,15.10
2019-04-28T03:25:26.136Z,10.00
2019-04-28T03:28:12.028Z,10.13
2019-04-28T03:31:36.868Z,14.00
2019-04-28T03:33:47.359Z,9.27
2019-04-28T03:36:15.432Z,12.03
2019-04-28T03:38:42.440Z,8.70
2019-04-28T03:41:12.612Z,10.13
2019-04-28T03:43:42.874Z,11.60
2019-04-28T03:46:20.447Z,10.53
2019-04-28T03:48:51.155Z,7.63
2019-04-28T03:51:21.466Z,12.47
2019-04-28T03:53:51.646Z,8.63
2019-04-28T03:56:21.831Z,10.23
2019-04-28T03:58:52.097Z,9.87
2019-04-28T04:01:22.335Z,11.90
2019-04-28T04:03:52.555Z,10.77
2019-04-28T04:06:22.869Z,6.20
2019-04-28T04:08:53.039Z,9.17
2019-04-28T04:11:46.810Z,8.67
2019-04-28T04:14:26.085Z,6.73
2019-04-28T04:17:01.281Z,7.37
2019-04-28T04:19:34.331Z,5.33
2019-04-28T04:22:04.514Z,11.43
2019-04-28T04:24:34.872Z,9.40
2019-04-28T04:27:05.060Z,13.03
2019-04-28T04:29:35.295Z,10.40
2019-04-28T04:32:15.532Z,9.60
2019-04-28T04:34:37.458Z,8.87
2019-04-28T04:37:07.699Z,9.53
2019-04-28T04:39:40.532Z,11.33
2019-04-28T04:42:10.559Z,11.67
2019-04-28T04:44:41.653Z,12.47
2019-04-28T04:47:11.918Z,9.17
2019-04-28T04:49:42.129Z,13.17
2019-04-28T04:52:12.354Z,9.93
2019-04-28T04:54:42.536Z,10.70
2019-04-28T04:57:12.714Z,7.87
2019-04-28T04:59:42.852Z,8.87
2019-04-28T05:02:29.930Z,11.30
2019-04-28T05:05:07.964Z,9.50
2019-04-28T05:07:39.618Z,13.60
2019-04-28T05:10:11.478Z,9.73
2019-04-28T05:12:41.806Z,10.80
2019-04-28T05:15:12.124Z,11.40
2019-04-28T05:17:42.223Z,12.93
2019-04-28T05:20:12.441Z,11.00
2019-04-28T05:22:51.782Z,8.40
2019-04-28T05:25:30.985Z,5.93
2019-04-28T05:28:02.957Z,10.00
2019-04-28T05:30:34.902Z,15.00
2019-04-28T05:33:03.329Z,16.47
2019-04-28T05:35:35.694Z,12.83
2019-04-28T05:38:06.022Z,12.53
2019-04-28T05:40:36.221Z,9.57
2019-04-28T05:43:06.355Z,11.60
2019-04-28T05:45:36.573Z,6.27
2019-04-28T05:48:08.943Z,8.33
2019-04-28T05:50:50.113Z,5.80
2019-04-28T05:53:26.772Z,10.90
2019-04-28T05:56:02.178Z,18.33
2019-04-28T05:58:41.652Z,10.80
2019-04-28T06:01:17.215Z,9.73
2019-04-28T06:03:49.574Z,9.40
2019-04-28T06:06:21.461Z,7.97
2019-04-28T06:08:57.363Z,14.00
2019-04-28T06:11:39.633Z,9.43
2019-04-28T06:14:09.987Z,8.60
2019-04-28T06:16:40.803Z,11.87
2019-04-28T06:19:11.087Z,10.67
2019-04-28T06:21:41.292Z,8.23
2019-04-28T06:24:11.488Z,10.67
2019-04-28T06:26:41.790Z,7.43
2019-04-28T06:29:12.013Z,10.93
2019-04-28T06:31:42.206Z,8.20
2019-04-28T06:34:12.458Z,13.07
2019-04-28T06:36:42.733Z,9.93
2019-04-28T06:39:12.911Z,6.17
2019-04-28T06:41:43.101Z,8.97
2019-04-28T06:44:13.278Z,12.00
2019-04-28T06:46:43.514Z,11.13
2019-04-28T06:49:13.706Z,8.03
2019-04-28T06:51:43.888Z,8.77
2019-04-28T06:54:14.018Z,9.60
2019-04-28T06:56:44.263Z,7.30
2019-04-28T06:59:14.449Z,12.27
2019-04-28T07:01:44.660Z,11.30
2019-04-28T07:04:14.850Z,7.93
2019-04-28T07:06:44.984Z,11.53
2019-04-28T07:09:17.258Z,9.43
2019-04-28T07:11:47.011Z,10.30
2019-04-28T07:14:18.380Z,8.10
2019-04-28T07:16:48.548Z,10.27
2019-04-28T07:19:18.730Z,12.13
2019-04-28T07:22:04.604Z,8.67
2019-04-28T07:24:34.816Z,10.67
2019-04-28T07:27:06.275Z,8.47
2019-04-28T07:29:36.423Z,14.13
2019-04-28T07:32:06.643Z,7.77
2019-04-28T07:34:36.696Z,9.97
2019-04-28T07:37:06.892Z,14.13
2019-04-28T07:39:37.119Z,13.17
2019-04-28T07:42:07.331Z,15.93
2019-04-28T07:44:37.475Z,13.97
2019-04-28T07:47:07.718Z,11.57
2019-04-28T07:49:37.912Z,15.27
2019-04-28T07:52:30.105Z,12.30
2019-04-28T07:55:00.214Z,16.80
2019-04-28T07:57:30.695Z,19.30
2019-04-28T08:00:00.844Z,13.13
2019-04-28T08:02:30.986Z,15.23
2019-04-28T08:05:01.026Z,17.43
2019-04-28T08:07:31.308Z,15.97
2019-04-28T08:10:03.094Z,18.27
2019-04-28T08:12:33.774Z,20.52
2019-04-28T08:15:04.016Z,14.50
2019-04-28T08:17:34.302Z,16.60
2019-04-28T08:20:05.730Z,13.07
2019-04-28T08:22:36.107Z,12.53
2019-04-28T08:25:06.601Z,9.73
2019-04-28T08:27:36.735Z,17.23
2019-04-28T08:30:07.872Z,13.67
2019-04-28T08:33:00.928Z,12.20
2019-04-28T08:35:31.158Z,11.17
2019-04-28T08:38:01.282Z,10.57
2019-04-28T08:40:31.393Z,11.07
2019-04-28T08:43:01.598Z,8.33
2019-04-28T08:45:31.876Z,12.97
2019-04-28T08:48:02.086Z,12.33
2019-04-28T08:50:32.453Z,12.93
2019-04-28T08:53:02.608Z,12.00
2019-04-28T08:55:32.792Z,13.97
2019-04-28T08:58:02.918Z,8.17
2019-04-28T09:00:33.150Z,12.87
2019-04-28T09:03:03.467Z,9.27
2019-04-28T09:05:33.709Z,11.17
2019-04-28T09:08:03.917Z,14.37
2019-04-28T09:10:34.028Z,13.77
2019-04-28T09:13:04.239Z,10.47
2019-04-28T09:15:34.450Z,12.33
2019-04-28T09:18:04.664Z,9.07
2019-04-28T09:20:34.860Z,8.50
2019-04-28T09:23:05.250Z,10.40
2019-04-28T09:25:35.430Z,12.20
2019-04-28T09:28:05.635Z,14.13
2019-04-28T09:30:35.823Z,11.27
2019-04-28T09:33:06.048Z,11.73
2019-04-28T09:35:36.210Z,10.50
2019-04-28T09:38:06.397Z,9.43
2019-04-28T09:40:36.432Z,10.53
2019-04-28T09:43:12.453Z,11.10
2019-04-28T09:46:07.696Z,5.63
2019-04-28T09:48:38.242Z,12.30
2019-04-28T09:51:08.345Z,10.93
2019-04-28T09:53:38.479Z,8.67
2019-04-28T09:56:08.668Z,8.17
2019-04-28T09:58:38.706Z,7.50
2019-04-28T10:01:09.119Z,9.53
2019-04-28T10:03:39.338Z,6.20
2019-04-28T10:06:09.585Z,5.57
2019-04-28T10:08:39.931Z,8.47
2019-04-28T10:11:10.104Z,9.03
2019-04-28T10:13:40.507Z,4.83
2019-04-28T10:16:10.731Z,5.33
2019-04-28T10:18:41.040Z,9.20
2019-04-28T10:21:11.573Z,7.40
2019-04-28T10:23:41.939Z,6.77
2019-04-28T10:26:12.588Z,5.50
2019-04-28T10:28:42.819Z,7.37
2019-04-28T10:31:13.506Z,8.70
2019-04-28T10:33:46.195Z,5.43
2019-04-28T10:36:16.801Z,3.50
2019-04-28T10:38:48.642Z,4.70
2019-04-28T10:41:26.572Z,6.43
2019-04-28T10:43:56.814Z,5.33
2019-04-28T10:46:27.111Z,6.63
2019-04-28T10:48:57.299Z,8.97
2019-04-28T10:51:27.516Z,6.83
2019-04-28T10:53:57.625Z,5.10
2019-04-28T10:56:27.833Z,4.67
2019-04-28T10:58:58.508Z,6.67
2019-04-28T11:01:28.804Z,3.80
2019-04-28T11:04:01.924Z,4.87
2019-04-28T11:06:32.111Z,5.27
2019-04-28T11:09:30.064Z,6.67
2019-04-28T11:11:50.813Z,6.77
2019-04-28T11:14:21.057Z,5.43
2019-04-28T11:16:51.293Z,4.27
2019-04-28T11:19:21.472Z,6.73
2019-04-28T11:21:51.619Z,8.80
2019-04-28T11:24:21.843Z,6.37
2019-04-28T11:26:52.047Z,4.50
2019-04-28T11:29:22.181Z,6.53
2019-04-28T11:31:52.381Z,5.37
2019-04-28T11:34:38.542Z,6.97
2019-04-28T11:37:08.713Z,5.87
2019-04-28T11:39:41.676Z,8.10
2019-04-28T11:42:11.807Z,5.40
2019-04-28T11:44:42.006Z,5.77
2019-04-28T11:47:14.743Z,6.40
2019-04-28T11:49:44.958Z,5.23
2019-04-28T11:52:15.188Z,6.00
2019-04-28T11:54:45.295Z,4.70
2019-04-28T11:57:17.436Z,7.63
2019-04-28T11:59:47.643Z,5.07
2019-04-28T12:02:17.953Z,5.20
2019-04-28T12:04:48.135Z,9.10
2019-04-28T12:07:18.418Z,8.10
2019-04-28T12:10:16.727Z,11.93
2019-04-28T12:13:05.864Z,8.10
2019-04-28T12:15:53.919Z,10.00
2019-04-28T12:18:43.988Z,6.47
2019-04-28T12:21:14.272Z,8.63
2019-04-28T12:23:44.561Z,6.80
2019-04-28T12:26:16.332Z,10.63
2019-04-28T12:28:46.610Z,7.20
2019-04-28T12:31:16.839Z,7.53
2019-04-28T12:33:47.030Z,4.30
2019-04-28T12:36:17.303Z,6.23
2019-04-28T12:38:47.507Z,6.47
2019-04-28T12:41:17.742Z,7.47
2019-04-28T12:43:47.851Z,3.97
2019-04-28T12:46:18.038Z,4.77
2019-04-28T12:48:50.658Z,5.30
2019-04-28T12:51:20.857Z,5.50
2019-04-28T12:53:54.857Z,5.20
2019-04-28T12:56:25.155Z,5.87
2019-04-28T12:58:59.685Z,4.27
2019-04-28T13:01:42.685Z,4.33
2019-04-28T13:04:21.475Z,4.37
2019-04-28T13:07:05.081Z,5.77
2019-04-28T13:09:35.282Z,4.77
2019-04-28T13:12:05.907Z,7.57
2019-04-28T13:14:36.101Z,4.77
2019-04-28T13:17:06.328Z,4.07
2019-04-28T13:19:36.444Z,7.27
2019-04-28T13:22:06.738Z,5.60
2019-04-28T13:24:36.946Z,3.90
2019-04-28T13:27:09.972Z,6.20
2019-04-28T13:29:39.113Z,5.90
2019-04-28T13:32:09.342Z,6.07
2019-04-28T13:34:41.058Z,8.10
2019-04-28T13:37:11.331Z,7.03
2019-04-28T13:39:50.871Z,3.70
2019-04-28T13:42:21.116Z,4.17
2019-04-28T13:45:01.995Z,5.23
2019-04-28T13:47:32.192Z,4.97
2019-04-28T13:50:14.360Z,6.93
2019-04-28T13:52:44.671Z,4.87
2019-04-28T13:55:36.999Z,7.67
2019-04-28T13:58:07.234Z,5.87
2019-04-28T14:00:54.748Z,5.53
2019-04-28T14:03:42.338Z,3.43
2019-04-28T14:06:27.189Z,4.37
2019-04-28T14:08:46.784Z,3.93
2019-04-28T14:11:17.185Z,5.83
2019-04-28T14:13:47.283Z,3.73
2019-04-28T14:16:17.557Z,4.73
2019-04-28T14:18:47.760Z,3.27
2019-04-28T14:21:17.951Z,7.50
2019-04-28T14:23:48.233Z,3.67
2019-04-28T14:26:18.446Z,4.10
2019-04-28T14:28:48.505Z,3.83
2019-04-28T14:31:18.741Z,6.90
2019-04-28T14:33:48.983Z,4.53
2019-04-28T14:36:19.085Z,2.73
2019-04-28T14:38:49.342Z,6.50
2019-04-28T14:41:19.464Z,3.87
2019-04-28T14:43:49.733Z,5.33
2019-04-28T14:46:19.995Z,3.53
2019-04-28T14:48:50.307Z,3.10
2019-04-28T14:51:20.566Z,3.43
2019-04-28T14:53:50.748Z,4.13
2019-04-28T14:56:20.953Z,6.20
2019-04-28T14:58:51.137Z,5.40
2019-04-28T15:01:39.290Z,4.17
2019-04-28T15:04:16.471Z,2.87
2019-04-28T15:06:55.814Z,2.97
2019-04-28T15:09:52.631Z,3.60
2019-04-28T15:18:49.271Z,4.57
2019-04-28T15:21:10.402Z,3.57
2019-04-28T15:23:40.605Z,4.03
2019-04-28T15:26:10.791Z,2.80
2019-04-28T15:28:41.033Z,2.80
2019-04-28T15:31:11.159Z,3.00
2019-04-28T15:33:41.356Z,3.67
2019-04-28T15:36:11.978Z,4.80
2019-04-28T15:38:42.153Z,5.27
2019-04-28T15:41:21.572Z,3.27
2019-04-28T15:43:44.281Z,5.13
2019-04-28T15:46:14.485Z,2.80
2019-04-28T15:48:44.699Z,4.13
2019-04-28T15:51:14.980Z,3.13
2019-04-28T15:53:48.946Z,3.20
2019-04-28T15:56:38.158Z,6.40
2019-04-28T15:59:09.385Z,3.97
2019-04-28T16:01:39.544Z,4.60
2019-04-28T16:04:09.852Z,3.87
2019-04-28T16:06:40.178Z,3.77
2019-04-28T16:09:13.074Z,6.37
2019-04-28T16:11:43.758Z,4.10
2019-04-28T16:14:14.008Z,4.20
2019-04-28T16:16:44.207Z,4.30
2019-04-28T16:19:17.128Z,4.80
2019-04-28T16:21:48.140Z,4.00
2019-04-28T16:24:18.335Z,7.47
2019-04-28T16:26:48.531Z,4.37
2019-04-28T16:29:19.240Z,5.30
2019-04-28T16:31:49.365Z,4.83
2019-04-28T16:34:19.536Z,4.83
2019-04-28T16:36:49.767Z,6.60
2019-04-28T16:39:20.030Z,5.37
2019-04-28T16:41:52.452Z,5.50
2019-04-28T16:44:23.991Z,4.90
2019-04-28T16:46:54.183Z,4.30
2019-04-28T16:49:24.341Z,4.80
2019-04-28T16:51:54.661Z,6.00
2019-04-28T16:54:24.850Z,4.73
2019-04-28T16:57:26.014Z,6.23
2019-04-28T17:00:18.029Z,5.20
2019-04-28T17:02:50.889Z,6.23
2019-04-28T17:05:21.186Z,6.93
2019-04-28T17:07:53.088Z,5.13
2019-04-28T17:10:23.436Z,6.80
2019-04-28T17:12:53.659Z,5.03
2019-04-28T17:15:23.888Z,8.00
2019-04-28T17:17:54.110Z,5.83
2019-04-28T17:20:24.293Z,6.63
2019-04-28T17:22:54.559Z,5.80
2019-04-28T17:25:24.795Z,6.90
2019-04-28T17:27:55.020Z,5.87
2019-04-28T17:30:25.479Z,6.80
2019-04-28T17:32:55.807Z,7.60
2019-04-28T17:35:25.993Z,7.63
2019-04-28T17:38:06.435Z,5.47
2019-04-28T17:40:28.805Z,5.33
2019-04-28T17:42:59.045Z,5.43
2019-04-28T17:45:29.275Z,6.43
2019-04-28T17:48:09.354Z,6.47
2019-04-28T17:50:39.628Z,5.63
2019-04-28T17:53:09.826Z,6.07
2019-04-28T17:55:40.128Z,7.60
2019-04-28T17:58:10.310Z,6.30
2019-04-28T18:00:56.550Z,6.53
2019-04-28T18:03:35.019Z,6.37
2019-04-28T18:06:17.879Z,9.20
2019-04-28T18:08:45.008Z,5.53
2019-04-28T18:11:15.187Z,5.73
2019-04-28T18:13:45.376Z,8.97
2019-04-28T18:16:37.367Z,5.20
2019-04-28T18:19:09.881Z,8.17
2019-04-28T18:21:40.264Z,7.83
2019-04-28T18:24:10.382Z,8.83
2019-04-28T18:26:40.658Z,7.40
2019-04-28T18:29:10.771Z,6.87
2019-04-28T18:31:52.833Z,6.67
2019-04-28T18:34:46.445Z,8.17
2019-04-28T18:37:41.852Z,5.83
2019-04-28T18:40:30.368Z,7.30
2019-04-28T18:43:16.280Z,9.37
2019-04-28T18:45:47.501Z,6.50
2019-04-28T18:48:18.722Z,9.03
2019-04-28T18:50:48.876Z,8.10
2019-04-28T18:53:19.095Z,10.00
2019-04-28T18:55:49.316Z,6.37
2019-04-28T18:58:19.482Z,7.23
2019-04-28T19:01:01.208Z,7.23
2019-04-28T19:03:31.725Z,6.53
2019-04-28T19:06:02.161Z,6.43
2019-04-28T19:08:49.118Z,6.40
2019-04-28T19:11:20.125Z,6.20
2019-04-28T19:13:55.183Z,7.20
2019-04-28T19:16:59.815Z,5.90
2019-04-28T19:19:31.274Z,9.83
2019-04-28T19:22:01.541Z,8.30
2019-04-28T19:24:31.853Z,7.73
2019-04-28T19:27:02.075Z,7.37
2019-04-28T19:29:32.197Z,7.80
2019-04-28T19:32:02.408Z,6.47
2019-04-28T19:34:32.581Z,10.75
2019-04-28T19:37:02.943Z,7.33
2019-04-28T19:39:33.086Z,7.47
2019-04-28T19:42:03.375Z,9.77
2019-04-28T19:44:33.560Z,7.20
2019-04-28T19:47:03.767Z,6.90
2019-04-28T19:49:35.602Z,7.13
2019-04-28T19:52:05.836Z,9.43
2019-04-28T19:54:38.522Z,7.07
2019-04-28T19:57:18.797Z,6.17
2019-04-28T20:00:07.022Z,7.67
2019-04-28T20:02:37.482Z,8.20
2019-04-28T20:05:07.822Z,9.20
2019-04-28T20:07:40.871Z,7.10
2019-04-28T20:10:10.398Z,7.37
2019-04-28T20:12:40.593Z,10.20
2019-04-28T20:15:10.899Z,6.60
2019-04-28T20:17:41.292Z,7.27
2019-04-28T20:20:11.708Z,11.03
2019-04-28T20:22:41.995Z,12.33
2019-04-28T20:25:12.181Z,10.03
2019-04-28T20:27:42.633Z,6.80
2019-04-28T20:30:13.158Z,7.60
2019-04-28T20:32:45.628Z,7.57
2019-04-28T20:35:20.019Z,8.57
2019-04-28T20:37:55.645Z,9.80
2019-04-28T20:40:32.491Z,8.70
2019-04-28T20:43:12.036Z,9.97
2019-04-28T20:45:42.590Z,10.00
2019-04-28T20:48:12.863Z,10.97
2019-04-28T20:50:43.052Z,9.03
2019-04-28T20:53:13.238Z,10.08
2019-04-28T20:55:43.481Z,9.10
2019-04-28T20:58:13.664Z,9.30
2019-04-28T21:00:43.910Z,8.80
2019-04-28T21:03:14.211Z,7.77
2019-04-28T21:05:44.401Z,8.93
2019-04-28T21:08:14.593Z,9.57
2019-04-28T21:10:44.745Z,8.43
2019-04-28T21:13:14.971Z,7.70
2019-04-28T21:15:45.354Z,11.20
2019-04-28T21:18:15.653Z,8.07
2019-04-28T21:20:45.840Z,7.73
2019-04-28T21:23:15.872Z,8.53
2019-04-28T21:25:46.062Z,8.07
2019-04-28T21:28:16.246Z,8.87
2019-04-28T21:30:46.577Z,9.80
2019-04-28T21:33:17.004Z,9.83
2019-04-28T21:35:47.271Z,11.80
2019-04-28T21:38:17.531Z,10.27
2019-04-28T21:40:47.936Z,10.87
2019-04-28T21:43:45.901Z,9.07
2019-04-28T21:46:37.735Z,9.83
2019-04-28T21:49:26.726Z,8.40
2019-04-28T21:51:56.922Z,10.50
2019-04-28T21:54:26.980Z,12.30
2019-04-28T21:56:57.066Z,9.20
2019-04-28T21:59:27.245Z,12.13
2019-04-28T22:01:57.636Z,9.10
2019-04-28T22:04:28.374Z,8.93
2019-04-28T22:06:58.532Z,7.53
2019-04-28T22:09:28.781Z,11.27
2019-04-28T22:11:58.965Z,9.40
2019-04-28T22:14:29.144Z,6.47
2019-04-28T22:16:59.331Z,6.67
2019-04-28T22:19:29.469Z,6.37
2019-04-28T22:21:59.645Z,7.60
2019-04-28T22:24:44.122Z,6.83
2019-04-28T22:27:23.133Z,9.87
2019-04-28T22:29:53.329Z,6.53
2019-04-28T22:32:23.506Z,7.87
2019-04-28T22:34:53.669Z,10.70
2019-04-28T22:37:23.855Z,6.73
2019-04-28T22:39:54.032Z,8.73
2019-04-28T22:42:24.267Z,6.33
2019-04-28T22:44:54.522Z,6.80
2019-04-28T22:47:24.641Z,8.13
2019-04-28T22:49:54.851Z,9.17
2019-04-28T22:52:25.026Z,6.13
2019-04-28T22:55:14.076Z,9.57
2019-04-28T22:57:54.169Z,6.57
2019-04-28T23:00:44.413Z,9.97
2019-04-28T23:03:22.117Z,10.30
2019-04-28T23:05:52.313Z,6.37
2019-04-28T23:08:22.487Z,4.40
2019-04-28T23:10:52.754Z,5.03
2019-04-28T23:13:23.020Z,6.13
2019-04-28T23:15:53.202Z,3.83
2019-04-28T23:18:23.378Z,5.90
2019-04-28T23:20:57.501Z,7.33
2019-04-28T23:23:27.695Z,7.70
2019-04-28T23:25:57.791Z,10.23
2019-04-28T23:28:27.907Z,7.90
2019-04-28T23:30:58.041Z,8.10
2019-04-28T23:33:28.005Z,6.10
2019-04-28T23:35:58.115Z,6.10
2019-04-28T23:38:28.323Z,6.73
2019-04-28T23:41:16.415Z,7.23
2019-04-28T23:43:46.530Z,7.00
2019-04-28T23:46:16.717Z,7.63
2019-04-28T23:48:46.823Z,8.30
2019-04-28T23:51:24.638Z,6.50
2019-04-28T23:54:05.694Z,6.27
2019-04-28T23:56:35.870Z,5.37
2019-04-28T23:59:05.980Z,6.60
